Time;durP1;ratioP1;P1;durP2;ratioP2;P2;SDS_P1;SDS_P2;PMS_P1;PMS_P2;Temp;Humidity;BMP_temperature;BMP_pressure;BME280_temperature;BME280_humidity;BME280_pressure;Samples;Min_cycle;Max_cycle;Signal;HPM_P1;HPM_P2
2023/10/27 00:01:43;;;;;;;21.73;14.25;;;10.50;99.90;;;;;;5057158;28;20507;-80
2023/10/27 00:04:08;;;;;;;22.80;14.25;;;10.50;99.90;;;;;;5070543;28;20135;-81
2023/10/27 00:06:34;;;;;;;23.55;14.02;;;10.50;99.90;;;;;;5071420;28;20465;-80
2023/10/27 00:09:00;;;;;;;20.85;13.18;;;10.50;99.90;;;;;;5052735;28;20074;-82
2023/10/27 00:11:27;;;;;;;24.05;13.32;;;10.50;99.90;;;;;;5054115;28;20045;-82
2023/10/27 00:13:52;;;;;;;22.70;13.38;;;10.50;99.90;;;;;;5053572;28;20515;-81
2023/10/27 00:16:18;;;;;;;24.27;13.32;;;10.50;99.90;;;;;;5053668;28;20056;-81
2023/10/27 00:18:44;;;;;;;23.25;14.32;;;10.50;99.90;;;;;;5054267;28;20545;-81
2023/10/27 00:21:10;;;;;;;22.48;14.93;;;10.50;99.90;;;;;;5052692;28;20044;-81
2023/10/27 00:23:35;;;;;;;23.40;14.85;;;10.50;99.90;;;;;;5057023;28;20081;-80
2023/10/27 00:26:01;;;;;;;21.10;13.10;;;10.60;99.90;;;;;;5052909;28;20044;-80
2023/10/27 00:28:28;;;;;;;22.17;13.60;;;10.50;99.90;;;;;;5055304;28;20037;-80
2023/10/27 00:30:53;;;;;;;22.75;13.18;;;10.50;99.90;;;;;;5053808;28;20044;-80
2023/10/27 00:33:19;;;;;;;22.17;13.80;;;10.50;99.90;;;;;;5049152;28;20079;-80
2023/10/27 00:35:44;;;;;;;23.08;14.23;;;10.50;99.90;;;;;;5048460;28;20045;-80
2023/10/27 00:38:10;;;;;;;18.65;12.57;;;10.50;99.90;;;;;;5056161;28;20135;-81
2023/10/27 00:40:36;;;;;;;24.35;14.32;;;10.50;99.90;;;;;;5061064;28;20402;-81
2023/10/27 00:43:06;;;;;;;21.15;12.73;;;10.50;99.90;;;;;;5035684;28;20064;-80
2023/10/27 00:45:32;;;;;;;17.73;11.23;;;10.50;99.90;;;;;;5054238;28;20041;-81
2023/10/27 00:47:58;;;;;;;23.20;13.18;;;10.50;99.90;;;;;;5048367;28;20043;-81
2023/10/27 00:50:24;;;;;;;19.48;12.43;;;10.50;99.90;;;;;;5052091;28;20057;-80
2023/10/27 00:52:50;;;;;;;20.02;11.15;;;10.50;99.90;;;;;;5050237;28;20037;-81
2023/10/27 00:55:17;;;;;;;19.60;11.68;;;10.40;99.90;;;;;;5053944;28;20064;-81
2023/10/27 00:57:43;;;;;;;20.25;11.73;;;10.40;99.90;;;;;;5055095;28;20094;-81
2023/10/27 01:00:09;;;;;;;19.25;12.45;;;10.40;99.90;;;;;;5054395;28;20040;-81
2023/10/27 01:02:35;;;;;;;18.35;11.23;;;10.40;99.90;;;;;;5054568;28;20602;-80
2023/10/27 01:05:00;;;;;;;17.50;11.38;;;10.40;99.90;;;;;;5053978;28;20127;-80
2023/10/27 01:07:26;;;;;;;20.98;12.18;;;10.40;99.90;;;;;;5054173;28;20040;-81
2023/10/27 01:09:52;;;;;;;18.02;11.02;;;10.40;99.90;;;;;;5064524;28;20063;-81
2023/10/27 01:12:17;;;;;;;20.63;12.93;;;10.40;99.90;;;;;;5060463;28;20044;-81
2023/10/27 01:14:43;;;;;;;20.50;13.43;;;10.40;99.90;;;;;;5054861;28;20053;-80
2023/10/27 01:17:10;;;;;;;22.73;13.60;;;10.40;99.90;;;;;;5051550;28;20044;-81
2023/10/27 01:19:36;;;;;;;22.88;13.98;;;10.40;99.90;;;;;;5049692;28;20539;-80
2023/10/27 01:22:03;;;;;;;20.05;12.70;;;10.40;99.90;;;;;;5051487;28;20052;-80
2023/10/27 01:24:29;;;;;;;20.33;13.60;;;10.40;99.90;;;;;;5067024;28;20044;-81
2023/10/27 01:26:55;;;;;;;21.17;13.85;;;10.40;99.90;;;;;;5050646;28;20053;-80
2023/10/27 01:29:23;;;;;;;23.38;13.95;;;10.40;99.90;;;;;;5036874;28;20042;-80
2023/10/27 01:31:49;;;;;;;22.80;14.60;;;10.40;99.90;;;;;;5050049;28;20111;-81
2023/10/27 01:34:14;;;;;;;20.92;13.32;;;10.40;99.90;;;;;;5050190;28;20045;-80
2023/10/27 01:36:40;;;;;;;21.20;13.35;;;10.40;99.90;;;;;;5050654;28;20385;-80
2023/10/27 01:39:07;;;;;;;23.80;12.77;;;10.40;99.90;;;;;;5061811;28;20040;-81
2023/10/27 01:41:33;;;;;;;20.35;13.27;;;10.40;99.90;;;;;;5055346;28;20059;-81
2023/10/27 01:43:58;;;;;;;20.30;12.73;;;10.40;99.90;;;;;;5054160;28;20369;-81
2023/10/27 01:46:24;;;;;;;24.17;14.63;;;10.40;99.90;;;;;;5054242;28;20044;-81
2023/10/27 01:48:50;;;;;;;23.77;13.95;;;10.40;99.90;;;;;;5054418;28;20496;-80
2023/10/27 01:51:15;;;;;;;24.23;14.85;;;10.40;99.90;;;;;;5054437;28;20061;-80
2023/10/27 01:53:41;;;;;;;21.60;13.07;;;10.40;99.90;;;;;;5053672;28;20037;-81
2023/10/27 01:56:07;;;;;;;22.17;12.95;;;10.40;99.90;;;;;;5037298;28;20094;-80
2023/10/27 01:58:33;;;;;;;24.30;13.88;;;10.40;99.90;;;;;;5054550;28;20084;-81
2023/10/27 02:00:58;;;;;;;21.20;13.38;;;10.30;99.90;;;;;;5053973;28;20190;-80
2023/10/27 02:03:24;;;;;;;21.10;13.77;;;10.40;99.90;;;;;;5053695;28;20045;-80
2023/10/27 02:05:49;;;;;;;23.23;13.38;;;10.30;99.90;;;;;;5054130;28;20048;-80
2023/10/27 02:08:16;;;;;;;24.23;14.10;;;10.30;99.90;;;;;;5058807;28;20170;-80
2023/10/27 02:10:42;;;;;;;24.67;13.20;;;10.30;99.90;;;;;;5053997;28;20041;-80
2023/10/27 02:13:08;;;;;;;24.50;14.63;;;10.30;99.90;;;;;;5053798;28;20037;-81
2023/10/27 02:15:34;;;;;;;22.98;13.32;;;10.30;99.90;;;;;;5044022;28;20511;-80
2023/10/27 02:17:59;;;;;;;24.90;14.25;;;10.30;99.90;;;;;;5034220;28;20062;-80
2023/10/27 02:20:25;;;;;;;26.80;15.27;;;10.30;99.90;;;;;;5033360;28;20088;-81
2023/10/27 02:22:50;;;;;;;22.02;13.52;;;10.20;99.90;;;;;;5034135;28;20110;-81
2023/10/27 02:25:16;;;;;;;23.75;14.43;;;10.30;99.90;;;;;;5038624;28;20471;-80
2023/10/27 02:27:43;;;;;;;21.73;13.07;;;10.20;99.90;;;;;;5030978;28;21942;-80
2023/10/27 02:30:09;;;;;;;21.45;14.13;;;10.20;99.90;;;;;;5025656;28;20045;-80
2023/10/27 02:32:34;;;;;;;25.70;14.75;;;10.20;99.90;;;;;;5028814;28;20148;-80
2023/10/27 02:35:00;;;;;;;24.45;14.10;;;10.20;99.90;;;;;;5033241;28;20580;-80
2023/10/27 02:37:26;;;;;;;23.52;14.98;;;10.20;99.90;;;;;;5033023;28;20111;-81
2023/10/27 02:39:51;;;;;;;26.10;14.82;;;10.20;99.90;;;;;;5027780;28;20037;-81
2023/10/27 02:42:17;;;;;;;25.45;15.18;;;10.20;99.90;;;;;;5030387;28;20428;-80
2023/10/27 02:44:42;;;;;;;25.13;15.45;;;10.20;99.90;;;;;;5033142;28;20049;-80
2023/10/27 02:47:08;;;;;;;24.10;14.45;;;10.20;99.90;;;;;;5040917;28;20094;-80
2023/10/27 02:49:34;;;;;;;21.40;12.05;;;10.20;99.90;;;;;;5035972;28;20101;-80
2023/10/27 02:51:59;;;;;;;21.40;12.82;;;10.20;99.90;;;;;;5038046;28;20037;-80
2023/10/27 02:54:25;;;;;;;27.00;15.80;;;10.20;99.90;;;;;;5032670;28;20124;-79
2023/10/27 02:56:51;;;;;;;29.17;15.15;;;10.20;99.90;;;;;;5031147;28;20049;-80
2023/10/27 02:59:17;;;;;;;28.98;16.17;;;10.20;99.90;;;;;;5033536;28;20545;-80
2023/10/27 03:01:46;;;;;;;26.80;15.30;;;10.20;99.90;;;;;;5032051;28;20038;-81
2023/10/27 03:04:12;;;;;;;23.80;13.93;;;10.20;99.90;;;;;;5032656;28;20045;-80
2023/10/27 03:06:38;;;;;;;27.90;15.02;;;10.20;99.90;;;;;;5049621;28;20041;-80
2023/10/27 03:09:04;;;;;;;19.10;11.65;;;10.20;99.90;;;;;;5033270;28;20183;-80
2023/10/27 03:11:30;;;;;;;18.67;11.32;;;10.20;99.90;;;;;;5036958;28;20049;-80
2023/10/27 03:13:55;;;;;;;21.98;13.45;;;10.20;99.90;;;;;;5033035;28;20041;-79
2023/10/27 03:16:22;;;;;;;21.65;12.70;;;10.20;99.90;;;;;;5051135;28;20404;-80
2023/10/27 03:18:48;;;;;;;20.67;12.68;;;10.20;99.90;;;;;;5052860;28;20373;-80
2023/10/27 03:21:14;;;;;;;19.30;12.25;;;10.20;99.90;;;;;;5052061;28;20630;-80
2023/10/27 03:23:40;;;;;;;19.13;12.52;;;10.20;99.90;;;;;;5044518;28;20099;-80
2023/10/27 03:26:06;;;;;;;20.00;12.20;;;10.10;99.90;;;;;;5044150;28;20041;-80
2023/10/27 03:28:32;;;;;;;19.52;11.48;;;10.20;99.90;;;;;;5052392;28;20048;-80
2023/10/27 03:30:58;;;;;;;18.88;11.70;;;10.10;99.90;;;;;;5052387;28;20091;-80
2023/10/27 03:33:24;;;;;;;19.98;11.30;;;10.20;99.90;;;;;;5050889;28;20041;-80
2023/10/27 03:35:49;;;;;;;18.80;12.00;;;10.10;99.90;;;;;;5050565;28;20470;-79
2023/10/27 03:38:17;;;;;;;20.25;11.43;;;10.10;99.90;;;;;;5036481;28;20075;-81
2023/10/27 03:40:43;;;;;;;18.38;12.07;;;10.10;99.90;;;;;;5051791;28;20055;-80
2023/10/27 03:43:09;;;;;;;17.88;11.43;;;10.20;99.90;;;;;;5051751;28;20473;-80
2023/10/27 03:45:35;;;;;;;19.73;11.68;;;10.10;99.90;;;;;;5052066;28;20073;-81
2023/10/27 03:48:03;;;;;;;17.58;11.02;;;10.10;99.90;;;;;;5051415;28;20037;-80
2023/10/27 03:50:29;;;;;;;17.02;10.80;;;10.10;99.90;;;;;;5051892;28;20101;-80
2023/10/27 03:52:54;;;;;;;16.48;10.13;;;10.00;99.90;;;;;;5051563;28;20045;-80
2023/10/27 03:55:20;;;;;;;19.98;10.98;;;10.10;99.90;;;;;;5050647;28;20472;-79
2023/10/27 03:57:46;;;;;;;18.40;11.60;;;10.10;99.90;;;;;;5051076;28;20052;-80
2023/10/27 04:00:13;;;;;;;15.00;10.07;;;10.10;99.90;;;;;;5050886;28;20051;-80
2023/10/27 04:02:39;;;;;;;19.02;10.85;;;10.10;99.90;;;;;;5050333;28;20123;-80
2023/10/27 04:05:05;;;;;;;19.83;11.25;;;10.10;99.90;;;;;;5056486;28;20538;-80
2023/10/27 04:07:30;;;;;;;17.60;11.63;;;10.00;99.90;;;;;;5050828;28;20055;-81
2023/10/27 04:09:56;;;;;;;16.83;10.55;;;10.10;99.90;;;;;;5051564;28;20040;-80
2023/10/27 04:12:22;;;;;;;16.35;9.88;;;10.10;99.90;;;;;;5051228;28;20465;-81
2023/10/27 04:14:50;;;;;;;17.67;10.50;;;10.10;99.90;;;;;;5050849;28;20053;-80
2023/10/27 04:17:16;;;;;;;17.77;11.05;;;10.00;99.90;;;;;;5032438;28;20057;-80
2023/10/27 04:19:45;;;;;;;21.88;11.02;;;10.00;99.90;;;;;;5031821;28;20045;-80
2023/10/27 04:22:11;;;;;;;16.92;10.98;;;10.00;99.90;;;;;;5030724;28;20037;-80
2023/10/27 04:24:37;;;;;;;18.52;11.57;;;10.00;99.90;;;;;;5031655;28;20095;-80
2023/10/27 04:27:03;;;;;;;16.23;10.60;;;10.00;99.90;;;;;;5031863;28;20088;-79
2023/10/27 04:29:28;;;;;;;16.27;9.93;;;10.00;99.90;;;;;;5032916;28;20465;-80
2023/10/27 04:31:54;;;;;;;17.45;11.57;;;10.00;99.90;;;;;;5028997;28;20045;-80
2023/10/27 04:34:20;;;;;;;17.23;11.25;;;10.00;99.90;;;;;;5029910;28;20084;-79
2023/10/27 04:36:45;;;;;;;20.45;11.45;;;10.00;99.90;;;;;;5027740;28;20525;-80
2023/10/27 04:39:11;;;;;;;15.88;10.85;;;9.90;99.90;;;;;;5025611;28;20059;-80
2023/10/27 04:41:37;;;;;;;19.48;11.75;;;9.90;99.90;;;;;;5027384;28;20129;-79
2023/10/27 04:44:03;;;;;;;19.25;12.48;;;10.00;99.90;;;;;;5031111;28;20053;-80
2023/10/27 04:46:28;;;;;;;18.17;11.43;;;10.00;99.90;;;;;;5031960;28;20049;-81
2023/10/27 04:48:57;;;;;;;18.25;10.95;;;10.00;99.90;;;;;;5030953;28;20045;-80
2023/10/27 04:51:24;;;;;;;19.67;12.65;;;10.00;99.90;;;;;;5031583;28;20045;-80
2023/10/27 04:53:49;;;;;;;17.60;12.02;;;10.00;99.90;;;;;;5024190;28;20049;-81
2023/10/27 04:56:16;;;;;;;19.27;12.45;;;10.00;99.90;;;;;;5029304;28;20570;-80
2023/10/27 04:58:42;;;;;;;18.58;11.65;;;10.00;99.90;;;;;;5015267;28;20053;-80
2023/10/27 05:01:08;;;;;;;19.58;12.77;;;10.00;99.90;;;;;;5036102;28;20484;-80
2023/10/27 05:03:34;;;;;;;20.23;11.52;;;10.00;99.90;;;;;;5035422;28;20050;-80
2023/10/27 05:06:09;;;;;;;20.58;13.43;;;10.00;99.90;;;;;;5046742;28;20040;-80
2023/10/27 05:08:35;;;;;;;20.10;12.23;;;10.00;99.90;;;;;;5038638;28;20404;-81
2023/10/27 05:11:00;;;;;;;19.42;11.88;;;10.00;99.90;;;;;;5037674;28;20044;-80
2023/10/27 05:13:26;;;;;;;16.60;10.63;;;10.00;99.90;;;;;;5031459;28;20150;-80
2023/10/27 05:15:54;;;;;;;18.60;11.63;;;10.00;99.90;;;;;;5049828;28;20056;-80
2023/10/27 05:18:20;;;;;;;21.15;12.70;;;10.00;99.90;;;;;;5034933;28;20103;-80
2023/10/27 05:20:45;;;;;;;17.05;10.35;;;10.00;99.90;;;;;;5035723;28;20071;-80
2023/10/27 05:23:11;;;;;;;20.98;12.82;;;10.00;99.90;;;;;;5038439;28;20041;-80
2023/10/27 05:25:37;;;;;;;21.55;12.73;;;10.00;99.90;;;;;;5036372;28;20052;-80
2023/10/27 05:28:02;;;;;;;16.25;10.75;;;10.00;99.90;;;;;;5038386;28;20037;-80
2023/10/27 05:30:28;;;;;;;17.63;11.80;;;10.00;99.90;;;;;;5039109;28;20046;-79
2023/10/27 05:32:54;;;;;;;20.27;12.68;;;10.00;99.90;;;;;;5033576;28;20049;-80
2023/10/27 05:35:19;;;;;;;20.25;12.18;;;10.00;99.90;;;;;;5037264;28;20045;-80
2023/10/27 05:37:45;;;;;;;20.38;12.05;;;10.00;99.90;;;;;;5035600;28;20041;-80
2023/10/27 05:40:11;;;;;;;20.60;13.25;;;10.00;99.90;;;;;;5018987;28;20612;-80
2023/10/27 05:42:36;;;;;;;19.35;12.18;;;10.00;99.90;;;;;;5034994;28;20049;-80
2023/10/27 05:45:02;;;;;;;18.48;12.38;;;10.00;99.90;;;;;;5039520;28;20059;-80
2023/10/27 05:47:28;;;;;;;18.48;11.77;;;10.00;99.90;;;;;;5033585;28;20519;-81
2023/10/27 05:49:55;;;;;;;21.40;12.70;;;10.00;99.90;;;;;;5046420;28;20045;-81
2023/10/27 05:52:21;;;;;;;22.60;12.63;;;10.00;99.90;;;;;;5043444;28;20053;-81
2023/10/27 05:54:46;;;;;;;19.40;11.90;;;10.00;99.90;;;;;;5034230;28;20064;-81
2023/10/27 05:57:12;;;;;;;22.48;12.75;;;10.00;99.90;;;;;;5035717;28;20437;-83
2023/10/27 05:59:37;;;;;;;18.02;11.48;;;10.00;99.90;;;;;;5036392;28;20052;-84
2023/10/27 06:02:03;;;;;;;20.08;12.68;;;10.00;99.90;;;;;;5031275;28;20091;-85
2023/10/27 06:04:29;;;;;;;21.20;13.07;;;10.00;99.90;;;;;;5045213;28;20033;-83
2023/10/27 06:06:54;;;;;;;19.38;12.30;;;10.00;99.90;;;;;;5042657;28;20476;-81
2023/10/27 06:09:20;;;;;;;24.35;13.23;;;10.10;99.90;;;;;;5032731;28;20053;-80
2023/10/27 06:11:46;;;;;;;16.77;11.43;;;10.00;99.90;;;;;;5019907;28;20133;-80
2023/10/27 06:14:11;;;;;;;22.00;11.57;;;10.10;99.90;;;;;;5034372;28;20038;-80
2023/10/27 06:16:37;;;;;;;20.10;13.35;;;10.10;99.90;;;;;;5056263;28;20048;-79
2023/10/27 06:19:03;;;;;;;23.33;12.80;;;10.00;99.90;;;;;;5060118;28;20052;-80
2023/10/27 06:21:29;;;;;;;21.92;13.38;;;10.00;99.90;;;;;;5070663;28;20122;-80
2023/10/27 06:23:55;;;;;;;21.05;13.85;;;10.10;99.90;;;;;;5055804;28;20091;-80
2023/10/27 06:26:20;;;;;;;18.75;11.82;;;10.00;99.90;;;;;;5059268;28;20040;-79
2023/10/27 06:28:46;;;;;;;18.10;10.65;;;10.00;99.90;;;;;;5061164;28;20040;-82
2023/10/27 06:31:12;;;;;;;19.85;12.55;;;10.10;99.90;;;;;;5059135;28;20098;-84
2023/10/27 06:33:38;;;;;;;19.65;11.88;;;10.00;99.90;;;;;;5056524;28;20098;-80
2023/10/27 06:36:04;;;;;;;18.13;11.05;;;10.00;99.90;;;;;;5056586;28;20112;-80
2023/10/27 06:38:30;;;;;;;19.63;11.95;;;10.00;99.90;;;;;;5056564;28;20040;-81
2023/10/27 06:40:56;;;;;;;22.92;13.50;;;10.00;99.90;;;;;;5037137;28;20118;-81
2023/10/27 06:43:21;;;;;;;19.02;12.00;;;10.00;99.90;;;;;;5056897;28;20040;-80
2023/10/27 06:45:47;;;;;;;19.52;11.40;;;10.00;99.90;;;;;;5040309;28;20052;-80
2023/10/27 06:48:13;;;;;;;21.80;12.50;;;10.10;99.90;;;;;;5055509;28;20044;-80
2023/10/27 06:50:40;;;;;;;18.92;12.20;;;10.10;99.90;;;;;;5046372;28;20070;-83
2023/10/27 06:53:06;;;;;;;20.98;12.05;;;10.10;99.90;;;;;;5038570;28;20525;-81
2023/10/27 06:55:32;;;;;;;18.00;11.65;;;10.10;99.90;;;;;;5055850;28;20133;-81
2023/10/27 06:57:58;;;;;;;21.50;13.02;;;10.10;99.90;;;;;;5054809;28;20045;-80
2023/10/27 07:00:23;;;;;;;19.27;11.90;;;10.10;99.90;;;;;;5067164;28;20044;-79
2023/10/27 07:02:49;;;;;;;18.40;10.48;;;10.20;99.90;;;;;;5046608;28;20071;-80
2023/10/27 07:05:16;;;;;;;19.55;12.43;;;10.10;99.90;;;;;;5060415;28;20528;-81
2023/10/27 07:07:43;;;;;;;18.25;11.65;;;10.10;99.90;;;;;;5054339;28;20044;-80
2023/10/27 07:10:09;;;;;;;20.52;11.77;;;10.10;99.90;;;;;;5056186;28;20045;-80
2023/10/27 07:12:35;;;;;;;17.77;10.85;;;10.10;99.90;;;;;;5055409;28;20084;-82
2023/10/27 07:15:01;;;;;;;17.45;11.32;;;10.10;99.90;;;;;;5074562;28;20080;-85
2023/10/27 07:17:28;;;;;;;18.30;11.13;;;10.10;99.90;;;;;;5053868;28;20049;-87
2023/10/27 07:19:53;;;;;;;17.73;10.45;;;10.20;99.90;;;;;;5054980;28;20043;-84
2023/10/27 07:22:19;;;;;;;17.17;10.65;;;10.20;99.90;;;;;;5055714;28;20044;-77
2023/10/27 07:24:46;;;;;;;17.60;10.60;;;10.20;99.90;;;;;;5071958;28;20098;-81
2023/10/27 07:27:11;;;;;;;15.73;10.43;;;10.20;99.90;;;;;;5054791;28;20127;-84
2023/10/27 07:29:39;;;;;;;18.85;11.23;;;10.20;99.90;;;;;;5075663;28;20565;-87
2023/10/27 07:32:05;;;;;;;18.23;11.95;;;10.20;99.90;;;;;;5068479;28;20079;-84
2023/10/27 07:34:31;;;;;;;20.27;11.55;;;10.20;99.90;;;;;;5054393;28;20052;-81
2023/10/27 07:36:57;;;;;;;17.15;11.35;;;10.20;99.90;;;;;;5054496;28;20044;-86
2023/10/27 07:39:23;;;;;;;17.90;10.90;;;10.20;99.90;;;;;;5074886;28;20044;-78
2023/10/27 07:41:50;;;;;;;19.83;11.05;;;10.20;99.90;;;;;;5091177;28;20083;-84
2023/10/27 07:44:16;;;;;;;17.77;11.63;;;10.10;99.90;;;;;;5062773;28;20098;-84
2023/10/27 07:46:41;;;;;;;20.63;12.75;;;10.10;99.90;;;;;;5071164;28;20049;-82
2023/10/27 07:49:07;;;;;;;17.48;11.20;;;10.10;99.90;;;;;;5075409;28;20080;-85
2023/10/27 07:51:33;;;;;;;18.55;11.95;;;10.10;99.90;;;;;;5082833;28;20413;-81
2023/10/27 07:53:59;;;;;;;19.20;12.20;;;10.10;99.90;;;;;;5074808;28;20475;-77
2023/10/27 07:56:24;;;;;;;18.08;11.43;;;10.10;99.90;;;;;;5071198;28;20090;-81
2023/10/27 07:58:51;;;;;;;19.73;11.23;;;10.20;99.90;;;;;;5055227;28;20070;-79
2023/10/27 08:01:17;;;;;;;17.30;11.07;;;10.10;99.90;;;;;;5054255;28;20041;-85
2023/10/27 08:03:42;;;;;;;18.10;12.35;;;10.10;99.90;;;;;;5054275;28;20055;-81
2023/10/27 08:06:09;;;;;;;17.50;11.00;;;10.20;99.90;;;;;;5055015;28;20391;-85
2023/10/27 08:08:38;;;;;;;18.38;11.82;;;10.20;99.90;;;;;;5026379;28;20619;-83
2023/10/27 08:11:05;;;;;;;18.63;11.32;;;10.30;99.90;;;;;;5072178;28;20489;-86
2023/10/27 08:13:32;;;;;;;16.40;10.98;;;10.20;99.90;;;;;;5071382;28;20052;-83
2023/10/27 08:16:02;;;;;;;20.75;12.10;;;10.20;99.90;;;;;;5071965;28;20057;-82
2023/10/27 08:18:28;;;;;;;19.25;10.50;;;10.20;99.90;;;;;;5060332;28;20048;-82
2023/10/27 08:20:56;;;;;;;21.85;11.55;;;10.20;99.90;;;;;;5053320;28;20044;-82
2023/10/27 08:23:21;;;;;;;19.80;12.23;;;10.30;99.90;;;;;;5070706;28;20053;-82
2023/10/27 08:25:51;;;;;;;16.80;11.00;;;10.30;99.90;;;;;;5071094;28;20044;-82
2023/10/27 08:28:18;;;;;;;20.08;11.63;;;10.30;99.90;;;;;;5070783;28;20070;-81
2023/10/27 08:30:44;;;;;;;19.95;12.65;;;10.30;99.90;;;;;;5071544;28;20119;-80
2023/10/27 08:33:10;;;;;;;18.55;11.98;;;10.30;99.90;;;;;;5071307;28;20055;-81
2023/10/27 08:35:35;;;;;;;16.05;10.93;;;10.30;99.90;;;;;;5053088;28;20044;-81
2023/10/27 08:38:01;;;;;;;17.60;11.63;;;10.40;99.90;;;;;;5070978;28;20048;-82
2023/10/27 08:40:28;;;;;;;16.65;10.85;;;10.40;99.90;;;;;;5053170;28;20400;-81
2023/10/27 08:42:55;;;;;;;18.55;12.13;;;10.40;99.90;;;;;;5070775;28;20048;-81
2023/10/27 08:45:22;;;;;;;19.13;12.13;;;10.50;99.90;;;;;;5070871;28;20052;-80
2023/10/27 08:47:48;;;;;;;18.17;11.48;;;10.40;99.90;;;;;;5038649;28;20040;-81
2023/10/27 08:50:13;;;;;;;19.17;11.63;;;10.40;99.90;;;;;;5075511;28;20384;-82
2023/10/27 08:52:39;;;;;;;15.57;9.77;;;10.40;99.90;;;;;;5075052;28;20059;-81
2023/10/27 08:55:10;;;;;;;18.40;12.00;;;10.60;99.90;;;;;;5074827;28;20052;-81
2023/10/27 08:57:37;;;;;;;19.17;12.10;;;10.50;99.90;;;;;;5080214;28;20071;-81
2023/10/27 09:00:07;;;;;;;17.98;11.45;;;10.50;99.90;;;;;;5076304;28;20483;-81
2023/10/27 09:02:35;;;;;;;18.05;11.82;;;10.50;99.90;;;;;;5040704;28;20052;-81
2023/10/27 09:05:09;;;;;;;20.92;11.88;;;10.60;99.90;;;;;;5056435;28;20487;-81
2023/10/27 09:07:38;;;;;;;17.83;11.18;;;10.60;99.90;;;;;;5056811;28;20045;-81
2023/10/27 09:10:08;;;;;;;20.65;10.90;;;10.60;99.90;;;;;;5056804;28;20037;-80
2023/10/27 09:12:38;;;;;;;18.13;11.07;;;10.60;99.90;;;;;;5056935;28;20053;-81
2023/10/27 09:15:04;;;;;;;17.65;10.35;;;10.70;99.90;;;;;;5056253;28;20053;-82
2023/10/27 09:17:48;;;;;;;17.33;11.30;;;10.70;99.90;;;;;;5056556;28;20491;-81
2023/10/27 09:20:14;;;;;;;15.73;10.47;;;10.80;99.90;;;;;;5056778;28;20503;-82
2023/10/27 09:22:59;;;;;;;16.15;10.70;;;10.80;99.90;;;;;;5056445;28;20101;-81
2023/10/27 09:25:29;;;;;;;15.07;9.98;;;10.80;99.90;;;;;;5048880;28;20048;-81
2023/10/27 09:27:55;;;;;;;15.57;10.15;;;10.80;99.90;;;;;;5056327;28;20044;-81
2023/10/27 09:30:38;;;;;;;16.92;11.07;;;10.80;99.90;;;;;;5056206;28;20503;-80
2023/10/27 09:33:13;;;;;;;16.55;10.73;;;10.90;99.90;;;;;;5056556;28;20109;-81
2023/10/27 09:35:40;;;;;;;14.40;9.25;;;10.80;99.90;;;;;;5039657;28;20360;-81
2023/10/27 09:38:06;;;;;;;17.23;9.75;;;10.90;99.90;;;;;;5055719;28;20327;-81
2023/10/27 09:40:39;;;;;;;15.27;9.35;;;10.90;99.90;;;;;;5056180;28;20079;-80
2023/10/27 09:43:19;;;;;;;19.80;9.65;;;10.90;99.90;;;;;;5056422;28;20084;-80
2023/10/27 09:46:06;;;;;;;15.90;9.18;;;11.00;99.90;;;;;;5063975;28;20044;-81
2023/10/27 09:48:34;;;;;;;14.30;9.43;;;10.90;99.90;;;;;;5039080;28;20045;-81
2023/10/27 09:51:01;;;;;;;12.63;8.57;;;11.00;99.90;;;;;;5049177;28;20057;-80
2023/10/27 09:53:31;;;;;;;14.38;9.38;;;11.00;99.90;;;;;;5052287;28;20047;-80
2023/10/27 09:55:58;;;;;;;13.93;8.85;;;11.00;99.90;;;;;;5056250;28;20502;-81
2023/10/27 09:58:35;;;;;;;15.70;9.65;;;11.00;99.90;;;;;;5039570;28;20052;-81
2023/10/27 10:01:02;;;;;;;14.90;8.98;;;11.00;99.90;;;;;;5055786;28;20033;-80
2023/10/27 10:03:28;;;;;;;13.73;8.70;;;11.00;99.90;;;;;;5055865;28;20169;-81
2023/10/27 10:06:23;;;;;;;14.00;9.02;;;11.00;99.90;;;;;;5056090;28;20040;-81
2023/10/27 10:09:05;;;;;;;15.35;9.05;;;11.00;99.90;;;;;;5036269;28;20404;-79
2023/10/27 10:11:36;;;;;;;15.05;9.80;;;11.00;99.90;;;;;;5035994;28;20174;-81
2023/10/27 10:14:04;;;;;;;13.40;8.75;;;11.10;99.90;;;;;;5055414;28;20056;-81
2023/10/27 10:16:40;;;;;;;13.05;8.52;;;11.10;99.90;;;;;;5056089;28;20087;-81
2023/10/27 10:19:06;;;;;;;14.63;9.32;;;11.20;99.90;;;;;;5055547;28;20090;-80
2023/10/27 10:21:43;;;;;;;17.40;9.88;;;11.20;99.90;;;;;;5055558;28;20080;-81
2023/10/27 10:24:09;;;;;;;12.27;7.82;;;11.20;99.90;;;;;;5054997;28;20453;-80
2023/10/27 10:27:04;;;;;;;14.82;9.30;;;11.20;99.90;;;;;;5055202;28;20097;-80
2023/10/27 10:29:32;;;;;;;14.70;8.93;;;11.30;99.90;;;;;;5055608;28;20053;-81
2023/10/27 10:32:36;;;;;;;13.07;8.95;;;11.30;99.90;;;;;;5055047;28;20049;-80
2023/10/27 10:35:22;;;;;;;15.95;9.20;;;11.30;99.90;;;;;;5054861;28;20049;-80
2023/10/27 10:37:51;;;;;;;15.60;9.48;;;11.30;99.90;;;;;;5055616;28;20045;-80
2023/10/27 10:40:26;;;;;;;12.07;8.18;;;11.40;99.90;;;;;;5055328;28;20048;-80
2023/10/27 10:43:27;;;;;;;12.82;8.65;;;11.40;99.90;;;;;;5055056;28;20048;-81
2023/10/27 10:45:56;;;;;;;18.90;9.32;;;11.40;99.90;;;;;;5055251;28;20048;-80
2023/10/27 10:48:26;;;;;;;13.52;8.60;;;11.40;99.90;;;;;;5055163;28;20041;-81
2023/10/27 10:50:55;;;;;;;15.50;9.32;;;11.40;99.90;;;;;;5056014;28;20041;-80
2023/10/27 10:53:24;;;;;;;14.93;9.32;;;11.40;99.90;;;;;;5059182;28;20424;-80
2023/10/27 10:55:58;;;;;;;14.68;9.38;;;11.40;99.90;;;;;;5056044;28;20055;-80
2023/10/27 10:58:24;;;;;;;16.77;10.50;;;11.40;99.90;;;;;;5052039;28;20052;-80
2023/10/27 11:00:50;;;;;;;14.48;9.38;;;11.40;99.90;;;;;;5034969;28;20417;-81
2023/10/27 11:03:17;;;;;;;16.48;10.43;;;11.40;99.90;;;;;;5046848;28;20052;-81
2023/10/27 11:05:43;;;;;;;15.50;9.50;;;11.50;99.90;;;;;;5054737;28;20102;-81
2023/10/27 11:08:09;;;;;;;14.98;10.23;;;11.50;99.90;;;;;;5054789;28;20052;-81
2023/10/27 11:10:35;;;;;;;16.30;9.38;;;11.50;99.90;;;;;;5054465;28;20102;-81
2023/10/27 11:13:05;;;;;;;16.25;9.95;;;11.50;99.90;;;;;;5054362;28;20469;-81
2023/10/27 11:15:48;;;;;;;14.70;10.00;;;11.50;99.90;;;;;;5054445;28;20079;-81
2023/10/27 11:18:15;;;;;;;17.77;10.80;;;11.50;99.90;;;;;;5055992;28;20056;-79
2023/10/27 11:20:43;;;;;;;16.75;10.40;;;11.40;99.90;;;;;;5055926;28;20044;-80
2023/10/27 11:23:16;;;;;;;17.52;11.35;;;11.50;99.90;;;;;;5055580;28;20093;-81
2023/10/27 11:25:43;;;;;;;17.38;11.80;;;11.50;99.90;;;;;;5055994;28;20048;-82
2023/10/27 11:28:22;;;;;;;16.27;9.95;;;11.50;99.90;;;;;;5055448;28;20044;-81
2023/10/27 11:31:15;;;;;;;17.17;10.55;;;11.50;99.90;;;;;;5054097;28;20048;-81
2023/10/27 11:34:03;;;;;;;18.40;10.50;;;11.50;99.90;;;;;;5054381;28;20389;-80
2023/10/27 11:36:35;;;;;;;18.67;11.68;;;11.50;99.90;;;;;;5054798;28;20045;-82
2023/10/27 11:39:21;;;;;;;18.88;11.95;;;11.50;99.90;;;;;;5054497;28;20131;-82
2023/10/27 11:41:54;;;;;;;18.75;11.73;;;11.50;99.90;;;;;;5053898;28;20048;-82
2023/10/27 11:44:21;;;;;;;18.60;11.57;;;11.50;99.90;;;;;;5053745;28;20131;-81
2023/10/27 11:46:54;;;;;;;18.15;11.27;;;11.50;99.90;;;;;;5054708;28;20051;-82
2023/10/27 11:49:21;;;;;;;19.70;11.98;;;11.50;99.90;;;;;;5057216;28;20055;-81
2023/10/27 11:51:48;;;;;;;17.58;11.40;;;11.50;99.90;;;;;;5050955;28;20049;-80
2023/10/27 11:54:15;;;;;;;18.98;11.45;;;11.50;99.90;;;;;;5052941;28;20055;-82
2023/10/27 11:56:41;;;;;;;17.13;10.88;;;11.50;99.90;;;;;;5053514;28;20427;-82
2023/10/27 11:59:07;;;;;;;19.25;11.40;;;11.50;99.90;;;;;;5053751;28;20066;-82
2023/10/27 12:01:33;;;;;;;19.75;11.90;;;11.50;99.90;;;;;;5054080;28;20056;-83
2023/10/27 12:04:00;;;;;;;21.98;13.00;;;11.50;99.90;;;;;;5053228;28;20048;-82
2023/10/27 12:06:26;;;;;;;18.83;11.98;;;11.50;99.90;;;;;;5053678;28;20411;-82
2023/10/27 12:08:51;;;;;;;19.83;11.95;;;11.50;99.90;;;;;;5053631;28;20054;-82
2023/10/27 12:11:17;;;;;;;20.38;12.77;;;11.50;99.90;;;;;;5053512;28;20066;-81
2023/10/27 12:13:47;;;;;;;22.00;12.43;;;11.50;99.90;;;;;;5053374;28;20102;-83
2023/10/27 12:16:14;;;;;;;20.48;12.75;;;11.60;99.90;;;;;;5053242;28;20052;-82
2023/10/27 12:18:40;;;;;;;20.20;12.80;;;11.50;99.90;;;;;;5053787;28;20555;-82
2023/10/27 12:21:06;;;;;;;19.65;12.75;;;11.60;99.90;;;;;;5053467;28;20087;-82
2023/10/27 12:23:32;;;;;;;22.02;12.25;;;11.50;99.90;;;;;;5055661;28;20119;-83
2023/10/27 12:25:59;;;;;;;20.67;12.80;;;11.60;99.90;;;;;;5070056;28;20499;-82
2023/10/27 12:28:27;;;;;;;21.63;12.45;;;11.60;99.90;;;;;;5037202;28;20421;-81
2023/10/27 12:30:54;;;;;;;18.55;12.52;;;11.60;99.90;;;;;;5053506;28;20049;-83